Terminal Aerodrome Forecast
Issued by NWS

Home | Current Version | Previous Version | Text Only | Print | Product List | Glossary On
Versions: 1 2 3 4 5 6 7 8 9 10 11 12 13 14
000
FTUS46 KPDT 280400 AAA
TAFBDN
TAF AMD
KBDN 280405Z 2804/2824 31010G18KT P6SM VCSH SCT060 BKN080
     FM280600 32012KT P6SM SCT060
     FM281200 32010KT P6SM SKC
     FM282100 33008KT P6SM SKC=

USA.gov is the U.S. government's official web portal to all federal, state and local government web resources and services.